createdAt,value
2017-10-23T00:03:30.920Z,11.30
2017-10-23T00:08:34.342Z,11.63
2017-10-23T00:13:36.258Z,12.53
2017-10-23T00:18:38.948Z,12.73
2017-10-23T00:23:40.844Z,13.63
2017-10-23T00:28:42.749Z,13.80
2017-10-23T00:33:44.663Z,12.90
2017-10-23T00:38:46.586Z,13.00
2017-10-23T00:43:50.063Z,13.10
2017-10-23T00:48:51.991Z,13.80
2017-10-23T00:53:54.953Z,12.37
2017-10-23T00:58:57.402Z,12.90
2017-10-23T01:04:00.182Z,11.87
2017-10-23T01:09:03.096Z,10.67
2017-10-23T01:14:05.880Z,11.03
2017-10-23T01:19:08.885Z,11.43
2017-10-23T01:24:12.444Z,10.70
2017-10-23T01:29:15.317Z,11.23
2017-10-23T01:34:18.220Z,11.27
2017-10-23T01:39:21.193Z,12.00
2017-10-23T01:44:24.446Z,12.00
2017-10-23T01:49:27.861Z,13.20
2017-10-23T01:54:30.792Z,12.60
2017-10-23T01:59:33.768Z,14.33
2017-10-23T02:04:36.681Z,12.63
2017-10-23T02:09:39.130Z,13.10
2017-10-23T02:14:41.980Z,11.67
2017-10-23T02:19:44.586Z,11.60
2017-10-23T02:24:47.167Z,11.93
2017-10-23T02:29:49.881Z,11.13
2017-10-23T02:34:52.733Z,11.30
2017-10-23T02:39:55.338Z,11.20
2017-10-23T02:44:57.823Z,11.93
2017-10-23T02:50:01.384Z,10.93
2017-10-23T02:55:04.147Z,11.43
2017-10-23T03:00:07.057Z,11.47
2017-10-23T03:05:09.819Z,12.03
2017-10-23T03:10:12.851Z,12.30
2017-10-23T03:15:15.849Z,10.40
2017-10-23T03:20:18.809Z,12.63
2017-10-23T03:25:21.132Z,11.67
2017-10-23T03:30:24.169Z,11.73
2017-10-23T03:35:27.249Z,11.37
2017-10-23T03:40:30.033Z,12.50
2017-10-23T03:45:33.633Z,13.93
2017-10-23T03:50:36.320Z,12.93
2017-10-23T03:55:39.146Z,12.17
2017-10-23T04:00:42.205Z,12.70
2017-10-23T04:05:45.263Z,13.40
2017-10-23T04:10:47.775Z,13.47
2017-10-23T04:15:51.365Z,13.97
2017-10-23T04:20:54.136Z,14.17
2017-10-23T04:25:56.915Z,14.90
2017-10-23T04:30:59.980Z,15.43
2017-10-23T04:36:02.953Z,14.30
2017-10-23T04:41:05.775Z,15.43
2017-10-23T04:46:08.843Z,15.60
2017-10-23T04:51:10.892Z,14.63
2017-10-23T04:56:13.719Z,14.90
2017-10-23T05:01:15.784Z,14.53
2017-10-23T05:06:17.896Z,16.53
2017-10-23T05:11:23.762Z,15.50
2017-10-23T05:16:26.663Z,15.23
2017-10-23T05:21:35.913Z,14.97
2017-10-23T05:26:38.070Z,17.00
2017-10-23T05:31:40.172Z,15.33
2017-10-23T05:36:42.231Z,16.00
2017-10-23T05:41:45.555Z,15.47
2017-10-23T05:46:48.623Z,16.00
2017-10-23T05:51:54.117Z,16.10
2017-10-23T05:56:57.947Z,15.67
2017-10-23T06:02:05.662Z,16.23
2017-10-23T06:07:08.028Z,15.13
2017-10-23T06:12:10.084Z,14.07
2017-10-23T06:17:13.300Z,12.90
2017-10-23T06:22:15.326Z,14.17
2017-10-23T06:27:17.419Z,12.50
2017-10-23T06:32:19.423Z,12.50
2017-10-23T06:37:21.432Z,12.50
2017-10-23T06:42:23.457Z,13.50
2017-10-23T06:47:25.539Z,13.27
2017-10-23T06:52:27.551Z,14.03
2017-10-23T06:57:29.653Z,12.30
2017-10-23T07:02:31.739Z,13.93
2017-10-23T07:07:33.959Z,13.93
2017-10-23T07:12:36.285Z,13.60
2017-10-23T07:17:38.537Z,13.30
2017-10-23T07:22:40.613Z,12.30
2017-10-23T07:27:42.920Z,11.37
2017-10-23T07:32:45.004Z,10.90
2017-10-23T07:37:46.991Z,10.97
2017-10-23T07:42:49.305Z,11.23
2017-10-23T07:47:51.382Z,10.37
2017-10-23T07:52:55.293Z,9.53
2017-10-23T07:57:57.248Z,9.33
2017-10-23T08:02:59.222Z,8.97
2017-10-23T08:08:01.900Z,7.23
2017-10-23T08:13:03.871Z,8.50
2017-10-23T08:18:06.512Z,6.87
2017-10-23T08:23:08.453Z,7.20
2017-10-23T08:28:10.479Z,7.73
2017-10-23T08:33:12.444Z,6.73
2017-10-23T08:38:14.399Z,7.07
2017-10-23T08:43:16.311Z,6.67
2017-10-23T08:48:19.015Z,6.90
2017-10-23T08:53:21.012Z,6.50
2017-10-23T08:58:23.139Z,6.00
2017-10-23T09:03:25.126Z,5.03
2017-10-23T09:08:27.117Z,5.30
2017-10-23T09:13:29.111Z,5.77
2017-10-23T09:18:37.895Z,4.80
2017-10-23T09:23:39.853Z,4.40
2017-10-23T09:28:41.775Z,4.90
2017-10-23T09:33:44.545Z,4.40
2017-10-23T09:38:47.268Z,4.90
2017-10-23T09:43:49.368Z,5.40
2017-10-23T09:48:52.848Z,4.67
2017-10-23T09:53:54.838Z,5.37
2017-10-23T09:58:56.891Z,4.70
2017-10-23T10:03:58.973Z,4.80
2017-10-23T10:09:01.195Z,5.20
2017-10-23T10:14:05.166Z,5.00
2017-10-23T10:19:07.144Z,4.43
2017-10-23T10:24:09.103Z,5.47
2017-10-23T10:29:11.827Z,5.87
2017-10-23T10:34:14.507Z,6.90
2017-10-23T10:39:16.494Z,7.00
2017-10-23T10:44:18.580Z,7.43
2017-10-23T10:49:21.973Z,8.03
2017-10-23T10:54:24.791Z,10.60
2017-10-23T10:59:26.741Z,8.07
2017-10-23T11:04:29.432Z,8.20
2017-10-23T11:09:31.344Z,8.00
2017-10-23T11:14:34.045Z,7.60
2017-10-23T11:19:36.039Z,7.63
2017-10-23T11:24:38.065Z,7.67
2017-10-23T11:29:40.110Z,8.20
2017-10-23T11:34:42.099Z,7.20
2017-10-23T11:39:44.803Z,8.20
2017-10-23T11:44:47.531Z,8.30
2017-10-23T11:49:52.986Z,7.40
2017-10-23T11:54:55.863Z,8.37
2017-10-23T11:59:58.499Z,7.20
2017-10-23T12:05:00.434Z,6.70
2017-10-23T12:10:02.364Z,6.30
2017-10-23T12:15:04.410Z,5.73
2017-10-23T12:20:06.372Z,5.30
2017-10-23T12:25:09.176Z,6.37
2017-10-23T12:30:11.463Z,6.03
2017-10-23T12:35:13.467Z,6.60
2017-10-23T12:40:15.502Z,5.80
2017-10-23T12:45:17.687Z,5.83
2017-10-23T12:50:19.612Z,5.57
2017-10-23T12:55:21.551Z,5.63
2017-10-23T13:00:27.119Z,5.23
2017-10-23T13:05:29.300Z,5.27
2017-10-23T13:10:31.203Z,5.10
2017-10-23T13:15:33.132Z,5.00
2017-10-23T13:20:35.089Z,5.43
2017-10-23T13:25:37.310Z,5.70
2017-10-23T13:30:39.265Z,4.90
2017-10-23T13:35:41.234Z,5.00
2017-10-23T13:40:43.192Z,5.60
2017-10-23T13:45:45.193Z,6.50
2017-10-23T13:50:47.159Z,5.70
2017-10-23T13:55:49.127Z,4.97
2017-10-23T14:00:51.981Z,5.87
2017-10-23T14:05:53.879Z,5.50
2017-10-23T14:10:55.819Z,6.80
2017-10-23T14:15:58.556Z,7.73
2017-10-23T14:21:01.351Z,6.73
2017-10-23T14:26:06.871Z,7.37
2017-10-23T14:31:10.287Z,9.10
2017-10-23T14:36:16.712Z,6.67
2017-10-23T14:41:18.832Z,6.83
2017-10-23T14:46:21.063Z,6.80
2017-10-23T14:51:23.115Z,6.23
2017-10-23T14:56:26.072Z,7.27
2017-10-23T15:01:28.122Z,6.30
2017-10-23T15:06:30.168Z,6.10
2017-10-23T15:11:32.865Z,6.60
2017-10-23T15:16:34.798Z,6.93
2017-10-23T15:21:37.527Z,6.60
2017-10-23T15:26:39.644Z,8.20
2017-10-23T15:31:41.569Z,7.03
2017-10-23T15:36:43.551Z,5.80
2017-10-23T15:41:45.495Z,5.47
2017-10-23T15:46:48.417Z,5.60
2017-10-23T15:51:50.396Z,5.17
2017-10-23T15:56:52.343Z,5.37
2017-10-23T16:01:54.360Z,5.93
2017-10-23T16:06:57.258Z,5.37
2017-10-23T16:11:59.180Z,5.37
2017-10-23T16:17:01.280Z,5.27
2017-10-23T16:22:03.229Z,5.53
2017-10-23T16:27:05.839Z,4.67
2017-10-23T16:32:08.537Z,5.50
2017-10-23T16:37:11.272Z,5.83
2017-10-23T16:42:13.261Z,6.23
2017-10-23T16:47:15.313Z,6.50
2017-10-23T16:52:17.243Z,5.90
2017-10-23T16:57:19.188Z,6.40
2017-10-23T17:02:22.195Z,6.28
2017-10-23T17:07:24.295Z,6.90
2017-10-23T17:12:27.144Z,7.47
2017-10-23T17:17:29.180Z,7.27
2017-10-23T17:22:31.141Z,7.70
2017-10-23T17:27:34.571Z,7.40
2017-10-23T17:32:36.543Z,6.97
2017-10-23T17:37:38.471Z,7.23
2017-10-23T17:42:40.393Z,7.70
2017-10-23T17:47:42.544Z,7.17
2017-10-23T17:52:44.568Z,7.73
2017-10-23T17:57:46.519Z,7.70
2017-10-23T18:02:48.484Z,7.50
2017-10-23T18:07:50.411Z,7.57
2017-10-23T18:12:52.336Z,8.00
2017-10-23T18:17:54.271Z,7.10
2017-10-23T18:22:56.196Z,7.53
2017-10-23T18:27:58.105Z,7.40
2017-10-23T18:33:00.019Z,6.80
2017-10-23T18:38:01.942Z,7.67
2017-10-23T18:43:04.789Z,7.87
2017-10-23T18:48:08.399Z,8.13
2017-10-23T18:53:11.135Z,7.10
2017-10-23T18:58:13.905Z,6.77
2017-10-23T19:03:16.309Z,6.60
2017-10-23T19:08:18.659Z,6.60
2017-10-23T19:13:20.591Z,7.73
2017-10-23T19:18:22.504Z,6.47
2017-10-23T19:23:24.496Z,7.40
2017-10-23T19:28:26.449Z,7.40
2017-10-23T19:33:28.428Z,7.17
2017-10-23T19:38:30.391Z,7.30
2017-10-23T19:43:32.342Z,7.13
2017-10-23T19:48:35.051Z,6.33
2017-10-23T19:53:37.731Z,6.37
2017-10-23T19:58:39.665Z,6.20
2017-10-23T20:03:41.602Z,6.23
2017-10-23T20:08:44.375Z,5.67
2017-10-23T20:13:46.365Z,5.93
2017-10-23T20:18:48.308Z,5.00
2017-10-23T20:23:50.215Z,4.47
2017-10-23T20:28:52.871Z,4.70
2017-10-23T20:33:54.768Z,4.20
2017-10-23T20:38:57.068Z,3.90
2017-10-23T20:43:59.135Z,3.87
2017-10-23T20:49:01.053Z,3.50
2017-10-23T20:54:03.059Z,4.23
2017-10-23T20:59:05.075Z,3.17
2017-10-23T21:04:08.032Z,3.50
2017-10-23T21:09:09.987Z,3.53
2017-10-23T21:14:12.065Z,3.17
2017-10-23T21:19:13.975Z,3.80
2017-10-23T21:24:15.907Z,3.47
2017-10-23T21:29:17.948Z,2.90
2017-10-23T21:34:19.855Z,3.30
2017-10-23T21:39:21.771Z,2.90
2017-10-23T21:44:23.819Z,2.83
2017-10-23T21:49:25.740Z,3.13
2017-10-23T21:54:28.428Z,2.13
2017-10-23T21:59:30.349Z,2.43
2017-10-23T22:04:33.076Z,2.53
2017-10-23T22:09:36.026Z,3.00
2017-10-23T22:14:37.921Z,2.67
2017-10-23T22:19:40.578Z,2.50
2017-10-23T22:24:42.466Z,3.03
2017-10-23T22:29:44.413Z,3.20
2017-10-23T22:34:46.360Z,2.77
2017-10-23T22:39:49.034Z,2.67
2017-10-23T22:44:51.263Z,3.97
2017-10-23T22:49:53.173Z,2.87
2017-10-23T22:54:55.146Z,4.00
2017-10-23T22:59:57.079Z,3.43
2017-10-23T23:04:59.736Z,3.30
2017-10-23T23:10:01.716Z,3.27
2017-10-23T23:15:04.398Z,3.13
2017-10-23T23:20:06.359Z,3.80
2017-10-23T23:25:08.444Z,4.43
2017-10-23T23:30:10.503Z,3.60
2017-10-23T23:35:12.425Z,3.80
2017-10-23T23:40:14.447Z,3.80
2017-10-23T23:45:17.163Z,3.90
2017-10-23T23:50:19.156Z,3.50
2017-10-23T23:55:21.132Z,4.50
